Time;durP1;ratioP1;P1;durP2;ratioP2;P2;SDS_P1;SDS_P2;PMS_P1;PMS_P2;Temp;Humidity;BMP_temperature;BMP_pressure;BME280_temperature;BME280_humidity;BME280_pressure;Samples;Min_cycle;Max_cycle;Signal;HPM_P1;HPM_P2
2021/04/23 00:01:05;;;;;;;14.48;9.73;;;11.50;99.90;;;;;;5117012;28;20621;-66
2021/04/23 00:03:50;;;;;;;15.02;9.43;;;11.60;99.90;;;;;;5098647;28;20665;-67
2021/04/23 00:06:16;;;;;;;15.93;10.45;;;11.40;99.90;;;;;;5116874;28;20175;-68
2021/04/23 00:08:51;;;;;;;15.43;9.67;;;11.40;99.90;;;;;;5098522;28;20211;-67
2021/04/23 00:11:20;;;;;;;14.40;8.93;;;11.40;99.90;;;;;;5098332;28;20211;-67
2021/04/23 00:13:46;;;;;;;19.13;10.05;;;11.40;99.90;;;;;;5098296;28;20561;-66
2021/04/23 00:16:12;;;;;;;13.27;8.93;;;11.40;99.90;;;;;;5116767;28;20175;-66
2021/04/23 00:18:39;;;;;;;12.52;8.63;;;11.30;99.90;;;;;;5116522;28;20332;-66
2021/04/23 00:21:06;;;;;;;13.55;7.93;;;11.30;99.90;;;;;;5098255;28;20172;-68
2021/04/23 00:23:33;;;;;;;13.52;8.30;;;11.30;99.90;;;;;;5116384;28;20211;-68
2021/04/23 00:25:59;;;;;;;12.85;8.20;;;11.30;99.90;;;;;;5116453;28;20168;-66
2021/04/23 00:28:25;;;;;;;16.00;8.68;;;11.30;99.90;;;;;;5116308;28;20196;-66
2021/04/23 00:30:53;;;;;;;14.33;8.20;;;11.20;99.90;;;;;;5116267;28;20298;-66
2021/04/23 00:33:20;;;;;;;11.50;7.30;;;11.30;99.90;;;;;;5116258;28;20673;-67
2021/04/23 00:35:48;;;;;;;14.63;7.93;;;11.30;99.90;;;;;;5097934;28;20179;-68
2021/04/23 00:38:20;;;;;;;11.52;7.35;;;11.30;99.90;;;;;;5116093;28;20187;-65
2021/04/23 00:41:12;;;;;;;10.75;6.78;;;11.30;99.90;;;;;;5116157;28;20223;-68
2021/04/23 00:43:46;;;;;;;10.10;5.85;;;11.30;99.90;;;;;;5115728;28;20725;-67
2021/04/23 00:46:13;;;;;;;9.30;5.65;;;11.20;99.90;;;;;;5116132;28;20164;-68
2021/04/23 00:48:45;;;;;;;9.68;6.05;;;11.10;99.90;;;;;;5116070;28;20241;-67
2021/04/23 00:51:14;;;;;;;10.00;6.72;;;11.10;99.90;;;;;;5115785;28;20240;-65
2021/04/23 00:53:42;;;;;;;8.90;5.43;;;11.10;99.90;;;;;;5115922;28;20724;-67
2021/04/23 00:56:12;;;;;;;8.75;5.20;;;11.00;99.90;;;;;;5115913;28;20167;-65
2021/04/23 00:58:37;;;;;;;11.05;6.10;;;11.00;99.90;;;;;;5115726;28;20231;-67
2021/04/23 01:01:07;;;;;;;7.93;5.63;;;11.00;99.90;;;;;;5115824;28;20204;-67
2021/04/23 01:03:33;;;;;;;9.52;5.35;;;11.00;99.90;;;;;;5097381;28;20474;-67
2021/04/23 01:06:04;;;;;;;7.43;5.50;;;11.00;99.90;;;;;;5115744;28;20652;-66
2021/04/23 01:08:30;;;;;;;6.80;5.13;;;11.00;99.90;;;;;;5115764;28;20656;-67
2021/04/23 01:10:59;;;;;;;8.70;5.60;;;10.90;99.90;;;;;;5114573;28;20207;-66
2021/04/23 01:13:31;;;;;;;12.18;5.40;;;10.90;99.90;;;;;;5115386;28;20976;-68
2021/04/23 01:16:14;;;;;;;9.35;5.43;;;10.90;99.90;;;;;;5097281;28;20220;-67
2021/04/23 01:18:40;;;;;;;8.13;5.43;;;10.90;99.90;;;;;;5115450;28;20231;-67
2021/04/23 01:21:36;;;;;;;8.55;4.95;;;10.90;99.90;;;;;;5115235;28;20176;-68
2021/04/23 01:24:07;;;;;;;8.07;5.32;;;10.90;99.90;;;;;;5094829;28;20246;-68
2021/04/23 01:26:35;;;;;;;8.32;5.35;;;10.80;99.90;;;;;;5115405;28;20630;-68
2021/04/23 01:29:03;;;;;;;9.48;5.70;;;10.90;99.90;;;;;;5115398;28;20199;-66
2021/04/23 01:31:31;;;;;;;7.53;5.35;;;10.80;99.90;;;;;;5115176;28;20208;-66
2021/04/23 01:34:00;;;;;;;7.28;5.10;;;10.80;99.90;;;;;;5115148;28;20195;-65
2021/04/23 01:36:27;;;;;;;8.38;4.85;;;10.70;99.90;;;;;;5115103;28;20184;-65
2021/04/23 01:38:53;;;;;;;9.07;5.18;;;10.70;99.90;;;;;;5115038;28;20208;-66
2021/04/23 01:41:20;;;;;;;7.30;4.77;;;10.70;99.90;;;;;;5096728;28;20267;-68
2021/04/23 01:43:48;;;;;;;11.18;5.20;;;10.60;99.90;;;;;;5114908;28;20444;-65
2021/04/23 01:46:14;;;;;;;9.93;5.53;;;10.60;99.90;;;;;;5096695;28;20244;-66
2021/04/23 01:48:40;;;;;;;9.05;4.55;;;10.50;99.90;;;;;;5114822;28;20200;-66
2021/04/23 01:51:08;;;;;;;7.03;5.20;;;10.50;99.90;;;;;;5096466;28;20226;-66
2021/04/23 01:53:34;;;;;;;7.22;4.78;;;10.50;99.90;;;;;;5114743;28;20208;-68
2021/04/23 01:56:01;;;;;;;8.93;4.97;;;10.50;99.90;;;;;;5114783;28;20573;-69
2021/04/23 01:58:27;;;;;;;8.07;5.07;;;10.40;99.90;;;;;;5096255;28;20436;-68
2021/04/23 02:00:55;;;;;;;10.50;4.15;;;10.40;99.90;;;;;;5114574;28;20172;-68
2021/04/23 02:03:21;;;;;;;7.88;5.70;;;10.40;99.90;;;;;;5114581;28;20227;-68
2021/04/23 02:05:49;;;;;;;7.40;4.55;;;10.40;99.90;;;;;;5114557;28;20648;-66
2021/04/23 02:08:17;;;;;;;6.28;4.78;;;10.40;99.90;;;;;;5114495;28;20711;-65
2021/04/23 02:10:48;;;;;;;9.35;5.80;;;10.40;99.90;;;;;;5096185;28;20258;-65
2021/04/23 02:13:18;;;;;;;9.98;4.75;;;10.30;99.90;;;;;;5114440;28;20183;-66
2021/04/23 02:15:43;;;;;;;8.98;4.47;;;10.30;99.90;;;;;;5114453;28;20202;-65
2021/04/23 02:18:09;;;;;;;7.37;4.60;;;10.30;99.90;;;;;;5114242;28;20249;-67
2021/04/23 02:20:36;;;;;;;6.60;4.17;;;10.30;99.90;;;;;;5114408;28;20175;-66
2021/04/23 02:23:06;;;;;;;9.80;4.90;;;10.20;99.90;;;;;;5114018;28;20192;-69
2021/04/23 02:25:33;;;;;;;8.75;4.97;;;10.20;99.90;;;;;;5114370;28;20160;-68
2021/04/23 02:27:59;;;;;;;6.93;4.70;;;10.20;99.90;;;;;;5114295;28;20237;-65
2021/04/23 02:30:32;;;;;;;7.88;4.97;;;10.20;99.90;;;;;;5114131;28;20197;-66
2021/04/23 02:32:58;;;;;;;10.23;5.28;;;10.20;99.90;;;;;;5114120;28;20233;-65
2021/04/23 02:35:25;;;;;;;8.00;5.15;;;10.20;99.90;;;;;;5096101;28;20184;-68
2021/04/23 02:37:53;;;;;;;5.72;4.20;;;10.20;99.90;;;;;;5114039;28;20219;-67
2021/04/23 02:40:23;;;;;;;7.32;4.93;;;10.10;99.90;;;;;;5114709;28;20640;-66
2021/04/23 02:42:51;;;;;;;8.60;3.70;;;10.00;99.90;;;;;;5114042;28;20600;-66
2021/04/23 02:45:20;;;;;;;8.68;4.90;;;10.00;99.90;;;;;;5095983;28;20633;-67
2021/04/23 02:47:47;;;;;;;6.18;4.65;;;10.00;99.90;;;;;;5113827;28;20200;-67
2021/04/23 02:50:16;;;;;;;12.73;4.35;;;9.90;99.90;;;;;;5095985;28;20180;-67
2021/04/23 02:52:41;;;;;;;8.18;5.05;;;9.80;99.90;;;;;;5092060;28;20239;-68
2021/04/23 02:55:09;;;;;;;7.67;4.33;;;9.80;99.90;;;;;;5093685;28;20652;-65
2021/04/23 02:57:35;;;;;;;9.30;4.70;;;9.70;99.90;;;;;;5092259;28;20417;-65
2021/04/23 03:00:01;;;;;;;5.70;3.97;;;9.70;99.90;;;;;;5093944;28;20177;-67
2021/04/23 03:02:26;;;;;;;7.57;4.87;;;9.60;99.90;;;;;;5093577;28;20180;-65
2021/04/23 03:04:52;;;;;;;7.20;4.53;;;9.60;99.90;;;;;;5093935;28;20619;-65
2021/04/23 03:07:20;;;;;;;8.70;4.30;;;9.50;99.90;;;;;;5093518;28;20173;-67
2021/04/23 03:09:48;;;;;;;7.53;4.45;;;9.50;99.90;;;;;;5093840;28;20180;-66
2021/04/23 03:12:14;;;;;;;7.10;4.72;;;9.40;99.90;;;;;;5092172;28;20261;-67
2021/04/23 03:14:39;;;;;;;8.67;4.93;;;9.20;99.90;;;;;;5093744;28;20538;-68
2021/04/23 03:17:05;;;;;;;6.10;4.10;;;9.20;99.90;;;;;;5093494;28;20180;-67
2021/04/23 03:19:31;;;;;;;8.80;4.27;;;9.20;99.90;;;;;;5092129;28;20299;-67
2021/04/23 03:21:56;;;;;;;8.37;5.10;;;9.20;99.90;;;;;;5093392;28;20172;-68
2021/04/23 03:24:22;;;;;;;7.70;5.10;;;9.10;99.90;;;;;;5093642;28;20200;-67
2021/04/23 03:26:47;;;;;;;8.80;5.27;;;9.00;99.90;;;;;;5093374;28;20207;-66
2021/04/23 03:29:15;;;;;;;13.00;4.87;;;9.00;99.90;;;;;;5092097;28;20211;-67
2021/04/23 03:31:42;;;;;;;7.65;4.10;;;8.90;99.90;;;;;;5093201;28;20569;-67
2021/04/23 03:34:08;;;;;;;10.73;5.30;;;8.90;99.90;;;;;;5095204;28;20192;-66
2021/04/23 03:36:33;;;;;;;9.85;4.85;;;8.90;99.90;;;;;;5095795;28;20642;-65
2021/04/23 03:38:59;;;;;;;6.27;4.70;;;8.90;99.90;;;;;;5097248;28;20215;-67
2021/04/23 03:41:31;;;;;;;6.70;4.55;;;8.90;99.90;;;;;;5095737;28;20637;-67
2021/04/23 03:43:59;;;;;;;6.68;4.80;;;8.90;99.90;;;;;;5097027;28;20215;-65
2021/04/23 03:46:26;;;;;;;7.45;4.80;;;8.80;99.90;;;;;;5097034;28;20168;-66
2021/04/23 03:48:52;;;;;;;6.45;4.07;;;8.70;99.90;;;;;;5096866;28;20274;-65
2021/04/23 03:51:19;;;;;;;8.40;5.03;;;8.70;99.90;;;;;;5096533;28;20662;-68
2021/04/23 03:53:45;;;;;;;7.00;3.60;;;8.80;99.90;;;;;;5117034;28;20435;-67
2021/04/23 03:56:12;;;;;;;6.32;4.07;;;8.80;99.90;;;;;;5098768;28;20225;-66
2021/04/23 03:58:39;;;;;;;8.90;4.57;;;8.70;99.90;;;;;;5098466;28;20591;-68
2021/04/23 04:01:10;;;;;;;8.13;4.47;;;8.70;99.90;;;;;;5098678;28;20179;-66
2021/04/23 04:03:37;;;;;;;6.10;4.40;;;8.50;99.90;;;;;;5116903;28;20207;-67
2021/04/23 04:06:04;;;;;;;5.95;3.80;;;8.40;99.90;;;;;;5116907;28;20168;-68
2021/04/23 04:08:30;;;;;;;10.27;4.40;;;8.40;99.90;;;;;;5101014;27;20203;-67
2021/04/23 04:10:56;;;;;;;6.10;3.97;;;8.40;99.90;;;;;;5123651;27;20277;-66
2021/04/23 04:13:22;;;;;;;10.82;4.72;;;8.30;99.90;;;;;;5098289;28;20285;-68
2021/04/23 04:15:48;;;;;;;6.75;4.45;;;8.40;99.90;;;;;;5116662;28;20179;-66
2021/04/23 04:18:14;;;;;;;7.93;4.63;;;8.20;99.90;;;;;;5116700;27;20192;-68
2021/04/23 04:20:42;;;;;;;7.07;4.10;;;8.20;99.90;;;;;;5118717;27;20263;-65
2021/04/23 04:23:14;;;;;;;8.27;4.50;;;8.60;99.90;;;;;;5126761;27;20256;-65
2021/04/23 04:25:40;;;;;;;15.38;6.20;;;9.30;99.90;;;;;;5116560;28;20237;-65
2021/04/23 04:28:07;;;;;;;12.38;5.55;;;9.60;99.90;;;;;;5110216;27;20676;-68
2021/04/23 04:30:33;;;;;;;9.95;4.25;;;9.90;99.90;;;;;;5116455;28;20170;-68
2021/04/23 04:32:59;;;;;;;7.38;4.70;;;10.10;99.90;;;;;;5114426;28;20215;-68
2021/04/23 04:35:27;;;;;;;8.30;6.13;;;10.40;99.90;;;;;;5116278;28;20186;-68
2021/04/23 04:37:53;;;;;;;6.93;3.67;;;10.40;99.90;;;;;;5116727;27;20484;-67
2021/04/23 04:40:19;;;;;;;4.28;3.40;;;10.70;99.90;;;;;;5122428;27;20186;-67
2021/04/23 04:42:45;;;;;;;5.72;3.75;;;11.10;99.90;;;;;;5136632;27;20261;-67
2021/04/23 04:45:16;;;;;;;5.90;2.50;;;11.10;99.90;;;;;;5114742;28;20270;-65
2021/04/23 04:47:41;;;;;;;6.88;3.88;;;11.00;99.90;;;;;;5097656;28;20435;-68
2021/04/23 04:50:14;;;;;;;4.40;2.43;;;11.10;99.90;;;;;;5117786;27;20195;-65
2021/04/23 04:52:40;;;;;;;11.38;4.03;;;11.10;99.90;;;;;;5116645;27;20696;-65
2021/04/23 04:55:08;;;;;;;6.97;3.70;;;11.50;99.90;;;;;;5102696;27;20269;-65
2021/04/23 04:57:35;;;;;;;4.95;3.53;;;11.20;99.90;;;;;;5134702;27;20951;-67
2021/04/23 05:00:02;;;;;;;5.60;3.10;;;11.30;99.90;;;;;;5130224;27;20660;-67
2021/04/23 05:02:28;;;;;;;7.40;3.95;;;9.80;99.90;;;;;;5098703;28;20183;-65
2021/04/23 05:04:53;;;;;;;5.07;4.13;;;9.30;99.90;;;;;;5097792;28;20760;-65
2021/04/23 05:07:19;;;;;;;5.47;3.30;;;9.20;99.90;;;;;;5115607;28;20168;-69
2021/04/23 05:09:45;;;;;;;5.03;2.87;;;9.20;99.90;;;;;;5134398;27;20609;-68
2021/04/23 05:12:10;;;;;;;5.20;3.60;;;9.10;99.90;;;;;;5129412;27;20286;-66
2021/04/23 05:14:36;;;;;;;5.47;3.23;;;9.00;99.90;;;;;;5121084;27;20228;-65
2021/04/23 05:17:02;;;;;;;7.47;3.10;;;8.90;99.90;;;;;;5109335;27;20263;-66
2021/04/23 05:19:27;;;;;;;6.03;3.20;;;9.00;99.90;;;;;;5117993;27;20208;-65
2021/04/23 05:21:53;;;;;;;5.60;3.80;;;9.00;99.90;;;;;;5108027;27;20236;-66
2021/04/23 05:24:18;;;;;;;5.87;3.30;;;9.00;99.90;;;;;;5118494;27;20214;-65
2021/04/23 05:26:44;;;;;;;5.83;4.20;;;9.10;99.90;;;;;;5128103;27;20185;-66
2021/04/23 05:29:10;;;;;;;5.40;3.50;;;9.30;99.90;;;;;;5128520;27;20233;-67
2021/04/23 05:31:35;;;;;;;3.30;3.00;;;9.50;99.90;;;;;;5116611;27;20768;-69
2021/04/23 05:34:02;;;;;;;6.93;3.77;;;9.80;99.90;;;;;;5120838;27;20199;-65
2021/04/23 05:36:28;;;;;;;7.07;3.70;;;9.90;99.90;;;;;;5116786;27;20672;-66
2021/04/23 05:38:53;;;;;;;8.65;4.30;;;9.70;99.90;;;;;;5116562;27;20214;-68
2021/04/23 05:41:19;;;;;;;4.93;3.60;;;9.70;99.90;;;;;;5118773;27;20192;-66
2021/04/23 05:43:47;;;;;;;9.60;4.00;;;9.60;99.90;;;;;;5125333;27;20231;-66
2021/04/23 05:46:13;;;;;;;6.78;4.35;;;9.60;99.90;;;;;;5118900;27;20704;-68
2021/04/23 05:48:39;;;;;;;5.05;3.60;;;9.50;99.90;;;;;;5113467;27;20210;-65
2021/04/23 05:51:05;;;;;;;8.33;4.87;;;9.60;99.90;;;;;;5115248;27;20207;-68
2021/04/23 05:53:31;;;;;;;6.23;3.90;;;9.60;99.90;;;;;;5121602;27;20326;-65
2021/04/23 05:55:57;;;;;;;10.63;4.20;;;9.70;99.90;;;;;;5095652;28;20412;-68
2021/04/23 05:58:23;;;;;;;4.55;3.63;;;9.70;99.90;;;;;;5120265;27;20519;-67
2021/04/23 06:00:48;;;;;;;7.83;4.67;;;9.80;99.90;;;;;;5128683;27;20178;-68
2021/04/23 06:03:14;;;;;;;6.60;4.23;;;10.00;99.90;;;;;;5111473;27;20203;-67
2021/04/23 06:05:40;;;;;;;7.70;4.33;;;9.90;99.90;;;;;;5114132;28;20263;-67
2021/04/23 06:08:08;;;;;;;7.68;4.53;;;9.80;99.90;;;;;;5118405;27;20244;-68
2021/04/23 06:10:34;;;;;;;5.95;4.70;;;9.90;99.90;;;;;;5124117;27;20208;-65
2021/04/23 06:13:00;;;;;;;7.30;4.45;;;10.10;99.90;;;;;;5104286;28;20208;-65
2021/04/23 06:15:27;;;;;;;5.35;3.55;;;10.20;99.90;;;;;;5122687;27;20636;-68
2021/04/23 06:17:54;;;;;;;7.15;4.50;;;10.10;99.90;;;;;;5119457;27;20265;-65
2021/04/23 06:20:24;;;;;;;7.03;4.85;;;10.20;99.90;;;;;;5126057;27;20567;-65
2021/04/23 06:22:50;;;;;;;5.93;4.15;;;10.20;99.90;;;;;;5127044;27;20195;-65
2021/04/23 06:25:18;;;;;;;3.78;3.47;;;10.30;99.90;;;;;;5115820;27;20595;-65
2021/04/23 06:27:45;;;;;;;8.20;4.30;;;10.30;99.90;;;;;;5120193;27;20195;-65
2021/04/23 06:30:15;;;;;;;7.00;4.50;;;10.40;99.90;;;;;;5118046;27;20205;-68
2021/04/23 06:32:43;;;;;;;9.85;4.80;;;10.60;99.90;;;;;;5116878;27;20250;-68
2021/04/23 06:35:13;;;;;;;7.13;4.85;;;10.50;99.90;;;;;;5122374;27;20232;-67
2021/04/23 06:37:38;;;;;;;5.88;4.38;;;10.50;99.90;;;;;;5121351;27;20203;-66
2021/04/23 06:40:05;;;;;;;8.33;4.37;;;10.60;99.90;;;;;;5102833;28;20226;-65
2021/04/23 06:42:31;;;;;;;7.78;4.78;;;10.40;99.90;;;;;;5119029;28;20172;-68
2021/04/23 06:44:57;;;;;;;6.00;4.27;;;10.50;99.90;;;;;;5121800;28;20179;-65
2021/04/23 06:47:22;;;;;;;10.47;5.10;;;10.70;99.90;;;;;;5123281;28;20214;-65
2021/04/23 06:49:48;;;;;;;8.53;5.00;;;10.70;99.90;;;;;;5118048;28;20192;-65
2021/04/23 06:52:14;;;;;;;6.90;4.87;;;10.60;99.90;;;;;;5118504;28;20235;-66
2021/04/23 06:54:39;;;;;;;11.00;5.33;;;10.80;99.90;;;;;;5126829;28;20218;-65
2021/04/23 06:57:05;;;;;;;7.70;5.10;;;11.00;99.90;;;;;;5109613;28;20183;-68
2021/04/23 06:59:31;;;;;;;10.45;5.25;;;11.20;99.90;;;;;;5127263;28;20207;-68
2021/04/23 07:01:57;;;;;;;8.10;4.87;;;11.20;99.90;;;;;;5119980;27;20205;-66
2021/04/23 07:04:22;;;;;;;8.23;5.27;;;11.30;99.90;;;;;;5115534;28;20635;-67
2021/04/23 07:06:51;;;;;;;10.00;4.20;;;11.20;99.90;;;;;;5125587;28;20190;-68
2021/04/23 07:09:17;;;;;;;6.00;4.50;;;11.30;99.90;;;;;;5111408;28;20697;-65
2021/04/23 07:11:44;;;;;;;8.45;5.07;;;11.40;99.90;;;;;;5134271;27;20245;-68
2021/04/23 07:14:10;;;;;;;16.88;5.70;;;11.50;99.90;;;;;;5126039;27;20657;-67
2021/04/23 07:16:36;;;;;;;7.30;4.20;;;11.60;99.90;;;;;;5127852;27;20236;-67
2021/04/23 07:19:02;;;;;;;8.00;4.60;;;11.80;99.90;;;;;;5127271;27;20290;-65
2021/04/23 07:21:27;;;;;;;4.83;4.00;;;11.90;99.90;;;;;;5120498;27;20337;-68
2021/04/23 07:23:53;;;;;;;7.47;4.90;;;12.00;99.90;;;;;;5117685;27;20785;-66
2021/04/23 07:26:18;;;;;;;7.90;6.10;;;12.10;99.90;;;;;;5113888;27;20183;-66
2021/04/23 07:28:47;;;;;;;7.03;4.10;;;12.30;99.90;;;;;;5127291;27;20290;-65
2021/04/23 07:31:13;;;;;;;8.32;5.03;;;12.50;99.90;;;;;;5121143;27;20203;-65
2021/04/23 07:33:39;;;;;;;5.00;4.20;;;12.70;99.90;;;;;;5110433;27;20752;-65
2021/04/23 07:36:05;;;;;;;8.20;4.00;;;12.80;99.90;;;;;;5123663;27;20176;-69
2021/04/23 07:38:31;;;;;;;6.63;4.88;;;13.50;99.90;;;;;;5114764;27;20443;-66
2021/04/23 07:40:59;;;;;;;7.70;4.57;;;13.20;99.90;;;;;;5123118;27;20588;-66
2021/04/23 07:43:28;;;;;;;7.93;4.80;;;13.10;99.90;;;;;;5120484;27;20470;-68
2021/04/23 07:45:54;;;;;;;13.60;5.45;;;13.20;99.90;;;;;;5118590;27;20969;-68
2021/04/23 07:48:24;;;;;;;8.80;4.90;;;13.10;99.90;;;;;;5126241;27;20305;-68
2021/04/23 07:50:50;;;;;;;11.20;5.20;;;13.20;99.90;;;;;;5108618;27;20467;-68
2021/04/23 07:53:16;;;;;;;8.90;4.93;;;13.30;99.90;;;;;;5107621;27;21000;-65
2021/04/23 07:55:44;;;;;;;6.73;4.70;;;13.40;99.90;;;;;;5120131;27;20212;-68
2021/04/23 07:58:10;;;;;;;7.83;5.33;;;13.60;99.90;;;;;;5125111;27;20598;-67
2021/04/23 08:00:35;;;;;;;6.87;4.90;;;13.50;99.90;;;;;;5120381;27;20477;-69
2021/04/23 08:03:02;;;;;;;9.70;5.10;;;13.50;99.90;;;;;;5106140;28;20440;-66
2021/04/23 08:05:27;;;;;;;10.60;6.20;;;13.50;99.90;;;;;;5119553;27;20196;-67
2021/04/23 08:07:53;;;;;;;12.17;5.40;;;13.60;99.90;;;;;;5117551;27;20451;-67
2021/04/23 08:10:20;;;;;;;8.57;5.87;;;13.70;99.90;;;;;;5119499;27;20191;-66
2021/04/23 08:12:47;;;;;;;8.70;5.70;;;13.90;99.90;;;;;;5103394;27;20221;-66
2021/04/23 08:15:14;;;;;;;7.80;5.00;;;14.10;99.90;;;;;;5104897;28;20838;-70
2021/04/23 08:17:40;;;;;;;5.13;4.33;;;14.10;99.90;;;;;;5118337;27;20530;-68
2021/04/23 08:20:10;;;;;;;7.40;5.00;;;14.00;99.90;;;;;;5120156;27;20533;-69
2021/04/23 08:22:39;;;;;;;8.33;6.10;;;14.30;99.90;;;;;;5108963;28;20197;-66
2021/04/23 08:25:06;;;;;;;10.00;5.00;;;14.40;99.90;;;;;;5120854;27;20438;-69
2021/04/23 08:27:35;;;;;;;5.77;4.80;;;14.40;99.90;;;;;;5114942;27;20424;-65
2021/04/23 08:30:05;;;;;;;7.50;5.33;;;14.70;99.90;;;;;;5101855;28;20893;-68
2021/04/23 08:32:31;;;;;;;9.83;4.80;;;14.80;99.90;;;;;;5118561;27;20558;-66
2021/04/23 08:34:57;;;;;;;8.10;5.10;;;14.80;99.90;;;;;;5116360;27;20527;-65
2021/04/23 08:37:22;;;;;;;8.90;4.93;;;15.00;99.90;;;;;;5103425;27;20194;-66
2021/04/23 08:39:48;;;;;;;8.23;4.03;;;15.40;99.90;;;;;;5120027;27;20763;-65
2021/04/23 08:42:14;;;;;;;5.77;4.40;;;15.70;99.90;;;;;;5116099;27;20179;-68
2021/04/23 08:44:42;;;;;;;6.77;4.47;;;15.50;99.70;;;;;;5125503;27;20262;-66
2021/04/23 08:47:11;;;;;;;5.70;4.00;;;15.70;97.50;;;;;;5118087;27;20187;-69
2021/04/23 08:49:38;;;;;;;7.50;4.20;;;15.60;96.80;;;;;;5118643;27;20444;-68
2021/04/23 08:52:04;;;;;;;6.67;4.40;;;15.70;97.90;;;;;;5123836;27;20545;-69
2021/04/23 08:54:30;;;;;;;3.83;3.13;;;15.70;97.10;;;;;;5123430;27;20678;-69
2021/04/23 08:56:56;;;;;;;6.40;4.33;;;15.90;94.10;;;;;;5118016;27;20919;-67
2021/04/23 08:59:21;;;;;;;4.77;3.50;;;15.90;92.50;;;;;;5105000;27;20248;-65
2021/04/23 09:01:47;;;;;;;4.00;2.93;;;15.90;92.40;;;;;;5121130;27;20258;-67
2021/04/23 09:04:16;;;;;;;6.30;3.07;;;16.20;91.90;;;;;;5120737;27;20202;-65
2021/04/23 09:06:41;;;;;;;4.87;2.97;;;16.30;91.50;;;;;;5127504;27;20179;-68
2021/04/23 09:09:13;;;;;;;4.20;2.47;;;16.70;91.50;;;;;;5122936;27;20435;-69
2021/04/23 09:11:44;;;;;;;3.80;2.87;;;17.20;90.00;;;;;;5124698;27;20207;-68
2021/04/23 09:14:13;;;;;;;5.80;3.60;;;17.60;87.40;;;;;;5117268;27;20790;-68
2021/04/23 09:16:44;;;;;;;8.53;3.33;;;17.70;89.70;;;;;;5124832;27;20411;-65
2021/04/23 09:19:29;;;;;;;3.80;2.80;;;17.60;88.10;;;;;;5123579;27;20547;-66
2021/04/23 09:22:03;;;;;;;5.07;3.83;;;17.20;84.90;;;;;;5123533;27;20467;-66
2021/04/23 09:24:31;;;;;;;7.03;3.10;;;17.40;86.40;;;;;;5113781;27;20451;-67
2021/04/23 09:27:00;;;;;;;3.50;2.80;;;17.50;81.60;;;;;;5106448;27;20417;-68
2021/04/23 09:29:31;;;;;;;5.20;2.57;;;17.90;77.40;;;;;;5123006;27;20456;-68
2021/04/23 09:32:08;;;;;;;3.37;2.87;;;17.80;76.60;;;;;;5123497;27;21016;-66
2021/04/23 09:34:33;;;;;;;3.77;2.70;;;17.30;75.20;;;;;;5119227;27;20455;-69
2021/04/23 09:36:59;;;;;;;2.93;2.50;;;17.00;74.70;;;;;;5130132;27;20435;-68
2021/04/23 09:39:26;;;;;;;6.57;3.30;;;17.00;77.80;;;;;;5118337;27;20668;-66
2021/04/23 09:41:54;;;;;;;5.73;2.77;;;17.10;78.10;;;;;;5095527;27;20192;-67
2021/04/23 09:44:48;;;;;;;2.70;2.50;;;17.10;76.70;;;;;;5116687;27;20460;-69
2021/04/23 09:47:18;;;;;;;3.27;2.97;;;17.40;71.90;;;;;;5114969;27;20424;-70
2021/04/23 09:49:46;;;;;;;3.17;1.97;;;17.40;71.60;;;;;;5117000;27;21028;-67
2021/04/23 09:52:14;;;;;;;3.40;2.50;;;17.40;75.40;;;;;;5112257;27;20840;-66
2021/04/23 09:54:45;;;;;;;4.97;2.50;;;18.20;74.40;;;;;;5119836;27;20806;-66
2021/04/23 09:57:16;;;;;;;2.60;2.00;;;18.00;71.60;;;;;;5118187;27;20939;-67
2021/04/23 09:59:54;;;;;;;2.87;2.60;;;17.70;70.60;;;;;;5118040;27;20451;-66
2021/04/23 10:02:23;;;;;;;2.60;2.20;;;17.50;74.30;;;;;;5105896;28;20481;-69
2021/04/23 10:04:49;;;;;;;2.67;1.77;;;17.40;71.90;;;;;;5115292;27;20483;-70
2021/04/23 10:07:17;;;;;;;3.53;2.27;;;17.40;73.80;;;;;;5104299;28;20421;-69
2021/04/23 10:09:54;;;;;;;2.93;2.20;;;17.80;72.90;;;;;;5094297;28;20538;-70
2021/04/23 10:12:45;;;;;;;2.93;2.20;;;18.10;72.00;;;;;;5120057;27;20472;-67
2021/04/23 10:15:12;;;;;;;3.07;1.97;;;18.20;71.50;;;;;;5109505;27;20998;-67
2021/04/23 10:17:38;;;;;;;3.00;2.37;;;18.00;69.70;;;;;;5120613;27;20581;-72
2021/04/23 10:20:06;;;;;;;3.53;3.03;;;18.20;71.50;;;;;;5118101;27;20462;-69
2021/04/23 10:22:32;;;;;;;3.17;2.27;;;18.30;68.60;;;;;;5102013;27;20792;-66
2021/04/23 10:24:58;;;;;;;3.60;2.57;;;18.20;70.60;;;;;;5121315;27;20443;-66
2021/04/23 10:27:24;;;;;;;2.40;2.10;;;18.20;72.10;;;;;;5113438;27;20208;-69
2021/04/23 10:29:52;;;;;;;3.30;3.00;;;18.00;72.90;;;;;;5125750;27;20187;-66
2021/04/23 10:32:22;;;;;;;6.10;2.17;;;18.30;67.80;;;;;;5102175;28;20211;-66
2021/04/23 10:34:48;;;;;;;3.47;2.00;;;18.00;71.80;;;;;;5104492;28;20467;-67
2021/04/23 10:37:14;;;;;;;3.57;2.57;;;17.90;68.80;;;;;;5118431;27;20909;-69
2021/04/23 10:39:43;;;;;;;4.23;2.87;;;17.70;68.20;;;;;;5098713;28;20263;-67
2021/04/23 10:42:43;;;;;;;2.87;2.63;;;17.90;70.00;;;;;;5119087;27;20517;-69
2021/04/23 10:45:24;;;;;;;2.83;2.00;;;17.80;66.10;;;;;;5122772;28;20573;-69
2021/04/23 10:47:51;;;;;;;2.90;2.43;;;17.90;68.60;;;;;;5106587;28;20512;-70
2021/04/23 10:50:22;;;;;;;3.03;2.13;;;18.10;67.10;;;;;;5100919;28;20432;-67
2021/04/23 10:52:57;;;;;;;3.97;2.60;;;18.10;64.80;;;;;;5124709;28;20492;-70
2021/04/23 10:55:36;;;;;;;2.97;2.00;;;18.30;67.50;;;;;;5123179;28;20430;-66
2021/04/23 10:58:03;;;;;;;2.20;1.97;;;18.60;68.40;;;;;;5122168;28;20471;-69
2021/04/23 11:00:54;;;;;;;2.43;1.90;;;19.10;68.10;;;;;;5115561;28;20867;-67
2021/04/23 11:03:38;;;;;;;4.67;2.37;;;19.10;63.30;;;;;;5116216;28;20450;-68
2021/04/23 11:06:14;;;;;;;3.47;2.00;;;18.60;65.10;;;;;;5115637;28;20432;-69
2021/04/23 11:09:00;;;;;;;4.67;2.40;;;18.30;64.10;;;;;;5120354;28;20454;-69
2021/04/23 11:11:26;;;;;;;2.60;2.13;;;17.90;61.80;;;;;;5103003;28;20461;-67
2021/04/23 11:13:53;;;;;;;6.73;2.60;;;17.70;61.40;;;;;;5118735;28;20544;-65
2021/04/23 11:16:25;;;;;;;2.60;2.17;;;18.20;63.70;;;;;;5110285;28;20455;-69
2021/04/23 11:18:54;;;;;;;2.87;2.67;;;17.70;61.90;;;;;;5101031;28;20551;-69
2021/04/23 11:21:38;;;;;;;4.67;2.97;;;17.30;62.00;;;;;;5114368;28;20426;-69
2021/04/23 11:24:12;;;;;;;2.13;1.97;;;17.20;62.20;;;;;;5110523;28;20551;-69
2021/04/23 11:27:05;;;;;;;4.40;2.90;;;17.40;62.00;;;;;;5099287;28;20431;-67
2021/04/23 11:29:30;;;;;;;2.60;2.07;;;17.70;60.10;;;;;;5097199;28;20995;-67
2021/04/23 11:32:13;;;;;;;3.50;2.70;;;18.10;61.70;;;;;;5113083;28;20468;-68
2021/04/23 11:34:41;;;;;;;4.10;2.67;;;18.10;65.30;;;;;;5112490;28;20510;-67
2021/04/23 11:37:10;;;;;;;4.57;2.70;;;17.90;61.30;;;;;;5104485;28;21024;-67
2021/04/23 11:39:41;;;;;;;4.63;2.37;;;18.10;64.80;;;;;;5118993;28;20453;-66
2021/04/23 11:42:16;;;;;;;2.80;2.60;;;18.60;62.70;;;;;;5117253;28;20985;-69
2021/04/23 11:44:48;;;;;;;4.13;2.30;;;18.50;64.50;;;;;;5119829;28;20443;-66
2021/04/23 11:47:16;;;;;;;4.90;2.73;;;18.70;64.00;;;;;;5119960;28;20520;-65
2021/04/23 11:49:42;;;;;;;3.67;2.97;;;19.40;60.60;;;;;;5120160;28;21549;-66
2021/04/23 11:52:08;;;;;;;2.07;1.87;;;19.00;62.00;;;;;;5124230;28;20526;-68
2021/04/23 11:54:43;;;;;;;5.50;2.10;;;19.10;60.80;;;;;;5118800;27;20247;-69
2021/04/23 11:57:11;;;;;;;3.17;2.60;;;18.90;58.90;;;;;;5120724;27;20256;-67
2021/04/23 11:59:59;;;;;;;2.03;1.83;;;18.40;59.70;;;;;;5105298;27;20537;-67
2021/04/23 12:02:42;;;;;;;2.30;2.10;;;18.70;59.70;;;;;;5129543;27;20415;-67
2021/04/23 12:05:29;;;;;;;3.73;1.90;;;18.20;58.00;;;;;;5119889;27;20443;-66
2021/04/23 12:08:00;;;;;;;2.30;2.10;;;18.50;60.10;;;;;;5108710;27;20492;-69
2021/04/23 12:10:27;;;;;;;2.17;1.97;;;19.10;56.80;;;;;;5109299;27;20433;-69
2021/04/23 12:12:54;;;;;;;2.67;2.10;;;19.20;58.90;;;;;;5132033;27;20476;-66
2021/04/23 12:15:27;;;;;;;5.60;2.40;;;19.50;60.30;;;;;;5131832;27;20486;-68
2021/04/23 12:17:54;;;;;;;3.60;2.60;;;19.50;59.80;;;;;;5128926;27;20476;-67
2021/04/23 12:20:37;;;;;;;3.43;1.90;;;19.20;57.90;;;;;;5124505;27;20424;-68
2021/04/23 12:23:15;;;;;;;3.70;2.10;;;19.00;59.80;;;;;;5117975;27;20424;-69
2021/04/23 12:25:43;;;;;;;2.20;2.00;;;19.40;60.30;;;;;;5119809;27;20410;-67
2021/04/23 12:28:14;;;;;;;3.40;2.10;;;19.70;60.10;;;;;;5098628;28;20784;-69
2021/04/23 12:30:40;;;;;;;2.60;2.00;;;19.40;55.70;;;;;;5122982;27;20413;-67
2021/04/23 12:33:06;;;;;;;2.83;1.70;;;19.50;59.40;;;;;;5122554;27;20982;-70
2021/04/23 12:35:37;;;;;;;2.37;1.90;;;19.30;58.90;;;;;;5132195;27;20185;-70
2021/04/23 12:38:06;;;;;;;5.83;2.13;;;18.90;58.20;;;;;;5120033;27;20302;-68
2021/04/23 12:40:34;;;;;;;2.50;1.80;;;18.90;58.40;;;;;;5121761;27;20474;-69
2021/04/23 12:43:15;;;;;;;3.63;2.13;;;18.60;59.70;;;;;;5115283;27;20473;-68
2021/04/23 12:45:47;;;;;;;2.90;2.00;;;18.50;61.70;;;;;;5126783;27;20809;-68
2021/04/23 12:48:14;;;;;;;6.10;2.60;;;18.50;59.40;;;;;;5116887;27;20461;-69
2021/04/23 12:50:41;;;;;;;3.17;2.47;;;18.60;59.80;;;;;;5115790;27;20416;-68
2021/04/23 12:53:08;;;;;;;3.00;1.90;;;18.80;59.90;;;;;;5124081;27;20867;-69
2021/04/23 12:55:34;;;;;;;3.27;1.97;;;19.10;59.50;;;;;;5106883;27;20416;-68